createdAt,value
2022-09-29T00:01:38.546Z,3.67
2022-09-29T00:04:41.732Z,3.67
2022-09-29T00:07:44.980Z,3.50
2022-09-29T00:10:49.788Z,3.27
2022-09-29T00:13:53.189Z,2.90
2022-09-29T00:16:57.295Z,3.50
2022-09-29T00:20:00.475Z,3.33
2022-09-29T00:23:03.819Z,3.37
2022-09-29T00:26:12.643Z,2.90
2022-09-29T00:29:15.876Z,2.90
2022-09-29T00:32:19.344Z,3.17
2022-09-29T00:35:22.584Z,2.93
2022-09-29T00:38:25.925Z,3.13
2022-09-29T00:41:32.669Z,2.70
2022-09-29T00:44:58.861Z,3.40
2022-09-29T00:48:07.547Z,3.47
2022-09-29T00:51:11.195Z,3.03
2022-09-29T00:54:15.861Z,3.00
2022-09-29T00:57:22.975Z,3.00
2022-09-29T01:00:26.895Z,2.73
2022-09-29T01:03:34.842Z,2.40
2022-09-29T01:06:41.076Z,2.90
2022-09-29T01:09:45.377Z,2.53
2022-09-29T01:12:50.633Z,2.70
2022-09-29T01:15:53.832Z,3.17
2022-09-29T01:18:57.130Z,3.30
2022-09-29T01:22:07.715Z,2.43
2022-09-29T01:25:36.951Z,2.60
2022-09-29T01:29:19.238Z,2.77
2022-09-29T01:32:30.614Z,2.97
2022-09-29T01:35:41.506Z,3.17
2022-09-29T01:38:58.385Z,2.70
2022-09-29T01:42:06.369Z,3.20
2022-09-29T01:45:17.526Z,3.03
2022-09-29T01:48:27.079Z,3.10
2022-09-29T01:51:36.946Z,3.27
2022-09-29T01:54:46.995Z,3.17
2022-09-29T01:57:54.211Z,3.17
2022-09-29T02:01:00.554Z,2.97
2022-09-29T02:04:10.676Z,3.40
2022-09-29T02:07:19.488Z,3.70
2022-09-29T02:10:26.870Z,3.73
2022-09-29T02:13:33.024Z,3.57
2022-09-29T02:16:41.796Z,3.47
2022-09-29T02:19:48.340Z,3.80
2022-09-29T02:22:51.826Z,3.53
2022-09-29T02:25:58.694Z,3.50
2022-09-29T02:29:02.801Z,3.67
2022-09-29T02:32:10.120Z,3.63
2022-09-29T02:35:16.456Z,3.50
2022-09-29T02:38:31.986Z,3.50
2022-09-29T02:41:46.920Z,3.40
2022-09-29T02:45:08.866Z,3.70
2022-09-29T02:48:29.860Z,2.63
2022-09-29T02:51:40.322Z,3.17
2022-09-29T02:54:56.870Z,3.00
2022-09-29T02:58:05.470Z,3.00
2022-09-29T03:01:09.810Z,2.77
2022-09-29T03:04:13.016Z,3.13
2022-09-29T03:07:17.631Z,3.27
2022-09-29T03:10:20.908Z,2.90
2022-09-29T03:13:24.076Z,3.17
2022-09-29T03:16:27.433Z,3.20
2022-09-29T03:19:30.797Z,3.10
2022-09-29T03:22:35.759Z,3.30
2022-09-29T03:25:38.985Z,2.97
2022-09-29T03:28:43.003Z,2.63
2022-09-29T03:31:46.509Z,3.20
2022-09-29T03:34:49.878Z,3.03
2022-09-29T03:37:58.822Z,3.07
2022-09-29T03:41:02.260Z,2.90
2022-09-29T03:44:05.500Z,2.83
2022-09-29T03:47:08.721Z,3.70
2022-09-29T03:50:12.076Z,3.63
2022-09-29T03:53:17.370Z,3.47
2022-09-29T03:56:20.596Z,2.97
2022-09-29T03:59:23.907Z,3.30
2022-09-29T04:02:27.159Z,3.30
2022-09-29T04:05:30.850Z,3.30
2022-09-29T04:08:37.352Z,3.43
2022-09-29T04:11:40.620Z,3.37
2022-09-29T04:14:43.863Z,3.47
2022-09-29T04:17:47.081Z,3.27
2022-09-29T04:20:50.480Z,3.20
2022-09-29T04:23:56.015Z,3.73
2022-09-29T04:26:59.360Z,3.97
2022-09-29T04:30:02.622Z,3.70
2022-09-29T04:33:05.824Z,3.63
2022-09-29T04:36:09.343Z,3.63
2022-09-29T04:39:14.176Z,3.50
2022-09-29T04:42:17.447Z,3.57
2022-09-29T04:45:20.702Z,4.47
2022-09-29T04:48:25.121Z,6.87
2022-09-29T04:51:28.415Z,6.70
2022-09-29T04:54:37.676Z,5.47
2022-09-29T04:57:43.457Z,5.47
2022-09-29T05:00:46.787Z,4.93
2022-09-29T05:03:49.942Z,4.97
2022-09-29T05:06:53.221Z,4.40
2022-09-29T05:09:57.850Z,5.30
2022-09-29T05:13:01.101Z,4.43
2022-09-29T05:16:05.605Z,4.73
2022-09-29T05:19:09.670Z,4.87
2022-09-29T05:22:12.889Z,4.50
2022-09-29T05:25:17.708Z,3.83
2022-09-29T05:28:20.863Z,3.90
2022-09-29T05:31:24.167Z,3.93
2022-09-29T05:34:27.483Z,3.57
2022-09-29T05:37:30.737Z,3.77
2022-09-29T05:40:37.372Z,3.73
2022-09-29T05:43:41.323Z,3.60
2022-09-29T05:46:44.597Z,3.63
2022-09-29T05:49:47.835Z,3.33
2022-09-29T05:52:53.035Z,4.37
2022-09-29T05:55:57.644Z,3.50
2022-09-29T05:59:01.624Z,3.73
2022-09-29T06:02:04.900Z,3.03
2022-09-29T06:05:08.744Z,3.63
2022-09-29T06:08:12.530Z,2.97
2022-09-29T06:11:19.681Z,2.60
2022-09-29T06:14:23.097Z,2.63
2022-09-29T06:17:26.331Z,3.42
2022-09-29T06:20:29.798Z,2.95
2022-09-29T06:23:33.530Z,3.05
2022-09-29T06:26:38.196Z,3.55
2022-09-29T06:29:41.455Z,2.90
2022-09-29T06:32:44.696Z,3.30
2022-09-29T06:36:06.070Z,3.30
2022-09-29T06:39:11.247Z,3.10
2022-09-29T06:42:16.325Z,3.63
2022-09-29T06:45:22.203Z,4.35
2022-09-29T06:48:25.695Z,3.25
2022-09-29T06:51:42.029Z,3.60
2022-09-29T06:54:48.112Z,4.50
2022-09-29T06:57:52.790Z,3.90
2022-09-29T07:00:56.111Z,3.72
2022-09-29T07:04:00.829Z,3.63
2022-09-29T07:07:04.124Z,3.40
2022-09-29T07:10:08.060Z,4.20
2022-09-29T07:13:12.656Z,3.80
2022-09-29T07:16:16.032Z,3.10
2022-09-29T07:19:20.115Z,3.45
2022-09-29T07:22:23.666Z,3.83
2022-09-29T07:25:47.277Z,4.45
2022-09-29T07:28:51.573Z,4.00
2022-09-29T07:31:55.515Z,4.93
2022-09-29T07:34:58.891Z,4.20
2022-09-29T07:38:02.197Z,4.03
2022-09-29T07:41:07.241Z,4.25
2022-09-29T07:44:11.993Z,2.60
2022-09-29T07:47:15.573Z,3.08
2022-09-29T07:50:18.917Z,2.83
2022-09-29T07:53:22.252Z,3.13
2022-09-29T07:56:25.704Z,3.25
2022-09-29T07:59:30.411Z,4.60
2022-09-29T08:02:33.762Z,4.28
2022-09-29T08:05:37.474Z,4.25
2022-09-29T08:08:46.550Z,4.60
2022-09-29T08:12:05.932Z,5.03
2022-09-29T08:15:12.385Z,3.38
2022-09-29T08:18:15.717Z,3.10
2022-09-29T08:21:19.116Z,3.10
2022-09-29T08:24:22.499Z,4.80
2022-09-29T08:27:25.799Z,2.70
2022-09-29T08:30:30.526Z,2.25
2022-09-29T08:33:34.380Z,2.47
2022-09-29T08:36:37.901Z,2.72
2022-09-29T08:39:41.872Z,2.33
2022-09-29T08:43:01.031Z,2.30
2022-09-29T08:46:09.465Z,2.42
2022-09-29T08:49:27.926Z,2.55
2022-09-29T08:52:50.126Z,2.22
2022-09-29T08:55:58.382Z,2.38
2022-09-29T08:59:01.704Z,2.10
2022-09-29T09:02:24.075Z,3.00
2022-09-29T09:05:48.458Z,2.50
2022-09-29T09:09:12.314Z,2.15
2022-09-29T09:12:48.002Z,2.47
2022-09-29T09:16:05.169Z,2.15
2022-09-29T09:19:40.249Z,2.20
2022-09-29T09:22:55.472Z,2.70
2022-09-29T09:26:02.513Z,2.88
2022-09-29T09:29:12.580Z,2.65
2022-09-29T09:32:22.118Z,2.60
2022-09-29T09:35:52.252Z,4.38
2022-09-29T09:39:03.864Z,3.80
2022-09-29T09:42:16.111Z,3.28
2022-09-29T09:45:28.386Z,3.78
2022-09-29T09:48:36.619Z,3.78
2022-09-29T09:51:51.073Z,3.75
2022-09-29T09:54:57.266Z,3.90
2022-09-29T09:58:25.673Z,4.35
2022-09-29T10:01:29.071Z,4.80
2022-09-29T10:04:34.001Z,4.70
2022-09-29T10:07:41.627Z,5.55
2022-09-29T10:10:57.674Z,4.70
2022-09-29T10:14:05.468Z,3.58
2022-09-29T10:17:14.243Z,4.05
2022-09-29T10:20:33.184Z,4.70
2022-09-29T10:23:46.976Z,3.70
2022-09-29T10:27:02.859Z,3.33
2022-09-29T10:30:23.792Z,3.60
2022-09-29T10:33:27.962Z,2.97
2022-09-29T10:36:34.314Z,2.83
2022-09-29T10:39:45.743Z,2.40
2022-09-29T10:42:51.237Z,2.92
2022-09-29T10:45:58.698Z,3.00
2022-09-29T10:49:15.385Z,2.55
2022-09-29T10:52:25.762Z,2.85
2022-09-29T10:55:33.310Z,2.60
2022-09-29T10:58:57.592Z,3.50
2022-09-29T11:02:05.996Z,2.67
2022-09-29T11:05:36.085Z,2.70
2022-09-29T11:09:05.949Z,3.05
2022-09-29T11:12:28.801Z,4.57
2022-09-29T11:15:41.986Z,3.08
2022-09-29T11:18:56.118Z,3.90
2022-09-29T11:22:36.760Z,3.63
2022-09-29T11:26:12.382Z,4.60
2022-09-29T11:29:29.592Z,5.38
2022-09-29T11:32:45.358Z,5.40
2022-09-29T11:35:55.743Z,4.72
2022-09-29T11:39:10.888Z,4.32
2022-09-29T11:42:31.470Z,3.40
2022-09-29T11:45:43.393Z,4.28
2022-09-29T11:49:04.697Z,3.35
2022-09-29T11:52:32.395Z,3.85
2022-09-29T11:55:50.914Z,3.42
2022-09-29T11:59:13.867Z,3.00
2022-09-29T12:02:41.544Z,3.20
2022-09-29T12:06:02.722Z,3.05
2022-09-29T12:09:24.948Z,2.95
2022-09-29T12:12:37.254Z,2.38
2022-09-29T12:15:52.690Z,2.50
2022-09-29T12:19:01.334Z,2.78
2022-09-29T12:22:09.101Z,3.22
2022-09-29T12:25:17.155Z,2.78
2022-09-29T12:28:27.409Z,2.63
2022-09-29T12:31:35.683Z,2.10
2022-09-29T12:34:46.161Z,2.70
2022-09-29T12:37:55.483Z,2.83
2022-09-29T12:41:11.012Z,2.10
2022-09-29T12:44:22.191Z,2.88
2022-09-29T12:47:44.240Z,2.38
2022-09-29T12:50:56.374Z,2.30
2022-09-29T12:54:12.539Z,3.05
2022-09-29T12:57:20.098Z,2.25
2022-09-29T13:00:24.506Z,2.78
2022-09-29T13:04:07.331Z,2.42
2022-09-29T13:07:51.300Z,2.38
2022-09-29T13:11:05.788Z,2.40
2022-09-29T13:14:22.613Z,2.15
2022-09-29T13:17:39.666Z,3.03
2022-09-29T13:21:02.985Z,2.60
2022-09-29T13:24:43.569Z,2.83
2022-09-29T13:27:49.913Z,2.50
2022-09-29T13:30:56.186Z,2.30
2022-09-29T13:34:02.476Z,2.53
2022-09-29T13:37:14.723Z,2.47
2022-09-29T13:40:23.265Z,3.15
2022-09-29T13:43:39.515Z,3.40
2022-09-29T13:46:43.037Z,2.92
2022-09-29T13:49:46.261Z,2.72
2022-09-29T13:52:49.508Z,2.60
2022-09-29T13:55:55.828Z,2.20
2022-09-29T13:59:01.378Z,2.67
2022-09-29T14:02:20.758Z,3.42
2022-09-29T14:05:46.743Z,3.40
2022-09-29T14:08:53.791Z,3.38
2022-09-29T14:12:02.654Z,3.25
2022-09-29T14:15:09.720Z,4.75
2022-09-29T14:18:19.818Z,4.70
2022-09-29T14:21:53.383Z,5.35
2022-09-29T14:24:57.135Z,4.78
2022-09-29T14:28:06.735Z,5.10
2022-09-29T14:31:23.172Z,5.47
2022-09-29T14:34:30.105Z,5.50
2022-09-29T14:37:33.379Z,4.53
2022-09-29T14:40:36.890Z,4.90
2022-09-29T14:43:44.217Z,4.45
2022-09-29T14:47:25.360Z,5.00
2022-09-29T14:50:59.158Z,4.75
2022-09-29T14:54:08.410Z,4.70
2022-09-29T14:57:34.328Z,4.32
2022-09-29T15:00:52.435Z,3.65
2022-09-29T15:03:58.165Z,3.80
2022-09-29T15:07:05.720Z,3.20
2022-09-29T15:10:22.746Z,3.70
2022-09-29T15:13:31.479Z,3.28
2022-09-29T15:16:52.911Z,3.15
2022-09-29T15:20:02.352Z,3.30
2022-09-29T15:23:28.452Z,3.20
2022-09-29T15:26:34.798Z,2.85
2022-09-29T15:29:38.020Z,3.35
2022-09-29T15:32:42.729Z,3.70
2022-09-29T15:35:51.263Z,3.40
2022-09-29T15:38:55.330Z,6.53
2022-09-29T15:42:02.213Z,4.47
2022-09-29T15:45:18.041Z,3.92
2022-09-29T15:48:22.687Z,4.72
2022-09-29T15:51:25.978Z,5.65
2022-09-29T15:54:34.925Z,5.90
2022-09-29T15:57:50.402Z,5.20
2022-09-29T16:01:00.048Z,4.53
2022-09-29T16:04:04.977Z,5.72
2022-09-29T16:07:19.304Z,5.55
2022-09-29T16:10:25.247Z,4.68
2022-09-29T16:13:33.527Z,5.00
2022-09-29T16:16:41.378Z,4.53
2022-09-29T16:19:48.916Z,4.43
2022-09-29T16:22:52.175Z,6.82
2022-09-29T16:26:14.332Z,9.85
2022-09-29T16:29:32.821Z,5.47
2022-09-29T16:32:42.836Z,6.47
2022-09-29T16:35:57.550Z,7.32
2022-09-29T16:39:01.783Z,5.70
2022-09-29T16:42:07.244Z,8.18
2022-09-29T16:45:17.846Z,7.72
2022-09-29T16:48:21.677Z,8.48
2022-09-29T16:51:38.520Z,7.47
2022-09-29T16:54:44.872Z,8.48
2022-09-29T16:57:57.309Z,10.85
2022-09-29T17:01:00.646Z,9.80
2022-09-29T17:04:03.935Z,9.80
2022-09-29T17:07:11.106Z,11.38
2022-09-29T17:10:18.788Z,11.32
2022-09-29T17:13:23.352Z,9.00
2022-09-29T17:16:27.460Z,13.73
2022-09-29T17:19:30.687Z,10.70
2022-09-29T17:22:37.878Z,8.88
2022-09-29T17:25:44.117Z,8.95
2022-09-29T17:28:46.303Z,7.65
2022-09-29T17:31:49.627Z,8.35
2022-09-29T17:34:52.826Z,8.23
2022-09-29T17:37:58.054Z,18.05
2022-09-29T17:41:03.729Z,9.43
2022-09-29T17:44:10.032Z,9.75
2022-09-29T17:47:27.168Z,9.25
2022-09-29T17:50:36.711Z,9.02
2022-09-29T17:53:42.387Z,9.60
2022-09-29T17:56:45.660Z,10.68
2022-09-29T17:59:48.878Z,10.63
2022-09-29T18:02:59.935Z,15.48
2022-09-29T18:06:03.238Z,12.85
2022-09-29T18:09:16.301Z,11.63
2022-09-29T18:12:22.507Z,10.52
2022-09-29T18:15:26.712Z,13.98
2022-09-29T18:18:29.949Z,12.48
2022-09-29T18:21:36.500Z,9.48
2022-09-29T18:24:41.493Z,11.23
2022-09-29T18:27:44.790Z,9.30
2022-09-29T18:30:50.549Z,12.15
2022-09-29T18:33:54.495Z,13.10
2022-09-29T18:36:57.724Z,15.23
2022-09-29T18:40:02.792Z,10.75
2022-09-29T18:43:07.356Z,7.53
2022-09-29T18:46:13.589Z,6.88
2022-09-29T18:49:17.150Z,6.15
2022-09-29T18:52:20.720Z,6.00
2022-09-29T18:55:26.998Z,5.35
2022-09-29T18:58:30.588Z,4.40
2022-09-29T19:01:33.803Z,4.32
2022-09-29T19:04:40.468Z,4.13
2022-09-29T19:07:43.772Z,4.50
2022-09-29T19:10:52.318Z,3.97
2022-09-29T19:13:56.314Z,3.63
2022-09-29T19:16:59.550Z,3.47
2022-09-29T19:20:03.122Z,2.95
2022-09-29T19:23:06.409Z,3.38
2022-09-29T19:26:13.987Z,3.85
2022-09-29T19:29:17.392Z,3.33
2022-09-29T19:32:21.242Z,3.42
2022-09-29T19:35:25.195Z,2.80
2022-09-29T19:38:28.455Z,3.33
2022-09-29T19:41:33.050Z,3.47
2022-09-29T19:44:37.852Z,3.58
2022-09-29T19:47:41.130Z,3.28
2022-09-29T19:51:02.478Z,3.30
2022-09-29T19:54:17.244Z,3.33
2022-09-29T19:57:22.575Z,3.58
2022-09-29T20:00:25.778Z,3.92
2022-09-29T20:03:28.960Z,3.50
2022-09-29T20:06:35.863Z,3.58
2022-09-29T20:09:39.069Z,2.72
2022-09-29T20:12:44.369Z,2.60
2022-09-29T20:15:47.793Z,2.40
2022-09-29T20:18:51.046Z,2.40
2022-09-29T20:21:57.379Z,2.42
2022-09-29T20:25:00.702Z,1.80
2022-09-29T20:28:08.787Z,2.40
2022-09-29T20:31:13.927Z,2.55
2022-09-29T20:34:18.787Z,2.47
2022-09-29T20:37:22.135Z,2.30
2022-09-29T20:40:25.313Z,2.78
2022-09-29T20:43:29.922Z,2.30
2022-09-29T20:46:33.242Z,2.65
2022-09-29T20:49:36.679Z,2.35
2022-09-29T20:52:39.908Z,2.03
2022-09-29T20:55:43.038Z,2.50
2022-09-29T20:58:49.767Z,6.18
2022-09-29T21:01:54.121Z,4.72
2022-09-29T21:04:57.514Z,2.58
2022-09-29T21:08:00.776Z,2.80
2022-09-29T21:11:05.884Z,3.10
2022-09-29T21:14:13.232Z,2.22
2022-09-29T21:17:16.395Z,2.63
2022-09-29T21:20:19.679Z,2.20
2022-09-29T21:23:23.204Z,2.28
2022-09-29T21:26:26.561Z,2.17
2022-09-29T21:29:31.208Z,2.17
2022-09-29T21:32:34.396Z,2.40
2022-09-29T21:35:37.609Z,2.60
2022-09-29T21:38:42.454Z,2.60
2022-09-29T21:41:46.288Z,3.00
2022-09-29T21:44:54.787Z,3.00
2022-09-29T21:48:09.525Z,4.00
2022-09-29T21:51:14.698Z,3.78
2022-09-29T21:54:19.743Z,2.55
2022-09-29T21:57:22.987Z,2.60
2022-09-29T22:00:27.634Z,2.60
2022-09-29T22:03:33.064Z,2.38
2022-09-29T22:06:37.811Z,2.58
2022-09-29T22:09:41.087Z,2.50
2022-09-29T22:12:44.415Z,2.45
2022-09-29T22:15:49.042Z,2.78
2022-09-29T22:19:12.053Z,2.55
2022-09-29T22:22:16.713Z,2.72
2022-09-29T22:25:19.907Z,2.22
2022-09-29T22:28:23.897Z,2.78
2022-09-29T22:31:28.809Z,2.90
2022-09-29T22:34:32.097Z,2.28
2022-09-29T22:37:35.291Z,3.10
2022-09-29T22:40:40.075Z,2.90
2022-09-29T22:43:43.620Z,2.55
2022-09-29T22:46:48.285Z,2.72
2022-09-29T22:49:51.664Z,2.80
2022-09-29T22:52:56.478Z,3.03
2022-09-29T22:55:59.891Z,3.30
2022-09-29T22:59:05.458Z,3.10
2022-09-29T23:02:10.123Z,2.80
2022-09-29T23:05:14.040Z,3.08
2022-09-29T23:08:18.800Z,3.08
2022-09-29T23:11:22.181Z,4.20
2022-09-29T23:14:25.451Z,3.60
2022-09-29T23:17:32.337Z,3.10
2022-09-29T23:20:35.559Z,3.15
2022-09-29T23:23:38.851Z,2.92
2022-09-29T23:26:42.148Z,3.20
2022-09-29T23:29:45.332Z,3.17
2022-09-29T23:32:50.393Z,3.55
2022-09-29T23:35:53.554Z,3.22
2022-09-29T23:39:14.056Z,3.13
2022-09-29T23:42:17.861Z,3.80
2022-09-29T23:45:21.096Z,3.35
2022-09-29T23:48:26.315Z,3.35
2022-09-29T23:51:32.154Z,3.90
2022-09-29T23:54:35.455Z,3.63
2022-09-29T23:57:38.619Z,3.70
